createdAt,value
2022-07-25T00:00:03.275Z,96119.34
2022-07-25T00:02:32.513Z,96113.47
2022-07-25T00:05:01.687Z,96114.63
2022-07-25T00:07:29.724Z,96116.88
2022-07-25T00:09:57.498Z,96103.16
2022-07-25T00:12:25.389Z,96106.22
2022-07-25T00:14:53.272Z,96104.75
2022-07-25T00:17:21.032Z,96103.81
2022-07-25T00:19:48.822Z,96102.25
2022-07-25T00:22:18.045Z,96099.84
2022-07-25T00:24:45.862Z,96104.13
2022-07-25T00:27:13.649Z,96108.66
2022-07-25T00:29:41.421Z,96105.88
2022-07-25T00:32:09.185Z,96107.09
2022-07-25T00:34:37.056Z,96103.44
2022-07-25T00:37:04.915Z,96101.22
2022-07-25T00:39:35.780Z,96101.31
2022-07-25T00:42:04.658Z,96099.00
2022-07-25T00:44:34.872Z,96102.88
2022-07-25T00:47:02.936Z,96105.97
2022-07-25T00:49:30.708Z,96104.78
2022-07-25T00:51:59.861Z,96091.81
2022-07-25T00:54:27.731Z,96093.03
2022-07-25T00:56:56.948Z,96097.09
2022-07-25T00:59:24.747Z,96094.94
2022-07-25T01:01:52.807Z,96084.66
2022-07-25T01:04:21.149Z,96083.84
2022-07-25T01:06:49.063Z,96074.88
2022-07-25T01:09:17.437Z,96076.81
2022-07-25T01:11:45.210Z,96075.25
2022-07-25T01:14:14.464Z,96075.16
2022-07-25T01:16:42.268Z,96074.31
2022-07-25T01:19:10.304Z,96069.94
2022-07-25T01:21:40.794Z,96067.25
2022-07-25T01:24:09.886Z,96063.63
2022-07-25T01:26:38.680Z,96070.25
2022-07-25T01:29:06.569Z,96064.31
2022-07-25T01:31:34.427Z,96067.47
2022-07-25T01:34:02.363Z,96062.41
2022-07-25T01:36:30.187Z,96055.81
2022-07-25T01:38:59.831Z,96053.81
2022-07-25T01:41:27.705Z,96050.97
2022-07-25T01:43:55.448Z,96056.78
2022-07-25T01:46:23.236Z,96048.16
2022-07-25T01:48:51.151Z,96051.22
2022-07-25T01:51:20.417Z,96057.91
2022-07-25T01:53:48.757Z,96055.88
2022-07-25T01:56:19.382Z,96054.00
2022-07-25T01:58:50.192Z,96047.69
2022-07-25T02:01:19.503Z,96040.88
2022-07-25T02:03:49.678Z,96054.22
2022-07-25T02:06:19.104Z,96055.34
2022-07-25T02:08:46.853Z,96051.47
2022-07-25T02:11:14.681Z,96046.50
2022-07-25T02:13:44.567Z,96043.25
2022-07-25T02:16:12.648Z,96038.56
2022-07-25T02:18:40.512Z,96041.84
2022-07-25T02:21:14.310Z,96041.91
2022-07-25T02:23:43.047Z,96047.41
2022-07-25T02:26:11.057Z,96039.94
2022-07-25T02:28:39.201Z,96038.78
2022-07-25T02:31:09.096Z,96038.34
2022-07-25T02:33:37.321Z,96034.16
2022-07-25T02:36:05.593Z,96037.00
2022-07-25T02:38:33.384Z,96033.00
2022-07-25T02:41:01.173Z,96035.59
2022-07-25T02:43:28.939Z,96029.00
2022-07-25T02:45:56.740Z,96030.88
2022-07-25T02:48:25.904Z,96031.28
2022-07-25T02:50:54.369Z,96022.88
2022-07-25T02:53:46.711Z,96022.41
2022-07-25T02:56:10.270Z,96014.66
2022-07-25T02:58:39.380Z,96013.47
2022-07-25T03:01:08.133Z,96019.72
2022-07-25T03:03:37.650Z,96024.41
2022-07-25T03:06:06.036Z,96008.75
2022-07-25T03:08:33.792Z,96012.69
2022-07-25T03:11:03.864Z,96021.06
2022-07-25T03:13:33.101Z,96017.53
2022-07-25T03:16:01.367Z,96018.22
2022-07-25T03:18:29.216Z,96014.69
2022-07-25T03:20:58.367Z,96016.72
2022-07-25T03:23:27.307Z,96014.78
2022-07-25T03:25:55.340Z,96022.53
2022-07-25T03:28:23.125Z,96010.34
2022-07-25T03:30:51.094Z,96018.81
2022-07-25T03:33:18.851Z,96018.63
2022-07-25T03:35:46.884Z,96018.84
2022-07-25T03:38:16.089Z,96011.34
2022-07-25T03:40:43.934Z,96011.22
2022-07-25T03:43:11.719Z,96010.38
2022-07-25T03:45:39.633Z,96008.06
2022-07-25T03:48:07.820Z,96009.06
2022-07-25T03:50:35.587Z,96009.38
2022-07-25T03:53:03.374Z,95996.13
2022-07-25T03:55:32.575Z,95997.72
2022-07-25T03:58:00.337Z,96005.13
2022-07-25T04:00:28.184Z,95998.59
2022-07-25T04:02:55.944Z,95991.00
2022-07-25T04:05:23.693Z,95996.06
2022-07-25T04:07:51.496Z,95991.38
2022-07-25T04:10:19.302Z,95993.16
2022-07-25T04:12:48.486Z,96000.19
2022-07-25T04:15:16.751Z,96003.56
2022-07-25T04:17:44.500Z,96000.47
2022-07-25T04:20:13.867Z,95998.03
2022-07-25T04:22:46.313Z,95989.34
2022-07-25T04:25:14.664Z,96001.06
2022-07-25T04:27:42.410Z,95997.16
2022-07-25T04:30:13.125Z,95990.53
2022-07-25T04:32:51.467Z,95982.50
2022-07-25T04:35:19.360Z,95988.97
2022-07-25T04:37:47.231Z,95969.94
2022-07-25T04:40:17.259Z,95981.38
2022-07-25T04:42:45.150Z,95983.81
2022-07-25T04:45:14.753Z,95980.06
2022-07-25T04:47:45.806Z,95980.91
2022-07-25T04:50:13.911Z,95981.41
2022-07-25T04:52:41.705Z,95979.59
2022-07-25T04:55:10.185Z,95975.41
2022-07-25T04:57:38.301Z,95971.31
2022-07-25T05:00:07.912Z,95973.72
2022-07-25T05:02:37.321Z,95972.22
2022-07-25T05:05:06.224Z,95963.75
2022-07-25T05:07:33.982Z,95968.53
2022-07-25T05:10:01.811Z,95972.59
2022-07-25T05:12:29.679Z,95971.84
2022-07-25T05:14:57.528Z,95963.28
2022-07-25T05:17:25.271Z,95963.75
2022-07-25T05:19:54.415Z,95961.88
2022-07-25T05:22:26.418Z,95964.31
2022-07-25T05:24:56.241Z,95966.28
2022-07-25T05:27:24.185Z,95964.44
2022-07-25T05:29:51.945Z,95962.91
2022-07-25T05:32:19.747Z,95968.41
2022-07-25T05:34:47.533Z,95968.88
2022-07-25T05:37:16.668Z,95962.28
2022-07-25T05:39:44.528Z,95958.41
2022-07-25T05:42:12.321Z,95964.31
2022-07-25T05:44:40.165Z,95963.56
2022-07-25T05:47:10.341Z,95967.94
2022-07-25T05:49:38.142Z,95970.31
2022-07-25T05:52:12.542Z,95971.16
2022-07-25T05:54:42.856Z,95970.81
2022-07-25T05:57:10.648Z,95973.19
2022-07-25T05:59:38.468Z,95955.59
2022-07-25T06:02:06.337Z,95954.84
2022-07-25T06:04:34.818Z,95962.34
2022-07-25T06:07:02.723Z,95963.13
2022-07-25T06:09:31.836Z,95959.63
2022-07-25T06:12:01.614Z,95954.94
2022-07-25T06:14:30.665Z,95955.38
2022-07-25T06:16:58.499Z,95958.50
2022-07-25T06:19:26.253Z,95950.66
2022-07-25T06:21:53.996Z,95954.22
2022-07-25T06:24:21.820Z,95946.38
2022-07-25T06:26:49.571Z,95956.63
2022-07-25T06:29:18.701Z,95961.78
2022-07-25T06:31:47.420Z,95962.56
2022-07-25T06:34:15.453Z,95948.81
2022-07-25T06:36:43.284Z,95962.16
2022-07-25T06:39:11.284Z,95948.44
2022-07-25T06:41:39.109Z,95952.75
2022-07-25T06:44:07.284Z,95955.50
2022-07-25T06:46:36.889Z,95955.09
2022-07-25T06:49:05.329Z,95949.97
2022-07-25T06:51:33.107Z,95948.78
2022-07-25T06:54:01.511Z,95955.44
2022-07-25T06:56:31.537Z,95945.19
2022-07-25T06:58:59.317Z,95948.69
2022-07-25T07:01:27.503Z,95952.19
2022-07-25T07:03:56.804Z,95946.22
2022-07-25T07:06:24.681Z,95946.97
2022-07-25T07:08:52.876Z,95952.84
2022-07-25T07:11:20.718Z,95954.38
2022-07-25T07:13:48.581Z,95950.72
2022-07-25T07:16:16.402Z,95950.66
2022-07-25T07:18:48.765Z,95946.59
2022-07-25T07:21:21.280Z,95946.09
2022-07-25T07:23:49.847Z,95937.31
2022-07-25T07:26:22.269Z,95948.69
2022-07-25T07:28:50.097Z,95944.59
2022-07-25T07:31:18.720Z,95940.56
2022-07-25T07:33:46.897Z,95944.44
2022-07-25T07:36:14.952Z,95943.94
2022-07-25T07:38:44.495Z,95945.84
2022-07-25T07:41:12.723Z,95936.34
2022-07-25T07:43:40.515Z,95929.53
2022-07-25T07:46:08.547Z,95935.38
2022-07-25T07:48:36.358Z,95932.88
2022-07-25T07:51:04.311Z,95926.44
2022-07-25T07:53:49.919Z,95929.06
2022-07-25T07:56:20.303Z,95927.38
2022-07-25T07:58:48.583Z,95929.19
2022-07-25T08:01:16.446Z,95926.69
2022-07-25T08:03:44.297Z,95923.31
2022-07-25T08:06:12.090Z,95918.81
2022-07-25T08:08:40.411Z,95920.19
2022-07-25T08:11:08.173Z,95925.53
2022-07-25T08:13:38.135Z,95926.09
2022-07-25T08:16:06.871Z,95922.66
2022-07-25T08:18:34.738Z,95919.72
2022-07-25T08:21:05.961Z,95920.66
2022-07-25T08:23:35.311Z,95909.06
2022-07-25T08:26:03.974Z,95916.75
2022-07-25T08:28:31.844Z,95920.47
2022-07-25T08:31:01.258Z,95918.63
2022-07-25T08:33:29.312Z,95916.84
2022-07-25T08:35:58.783Z,95916.03
2022-07-25T08:38:28.907Z,95907.91
2022-07-25T08:40:57.916Z,95914.81
2022-07-25T08:43:25.694Z,95908.56
2022-07-25T08:45:55.386Z,95905.81
2022-07-25T08:48:26.549Z,95913.63
2022-07-25T08:50:57.039Z,95906.72
2022-07-25T08:53:34.612Z,95908.59
2022-07-25T08:56:11.178Z,95906.75
2022-07-25T08:58:41.693Z,95910.84
2022-07-25T09:01:11.892Z,95902.34
2022-07-25T09:03:42.501Z,95905.78
2022-07-25T09:06:18.651Z,95906.50
2022-07-25T09:08:54.452Z,95898.28
2022-07-25T09:11:33.100Z,95905.00
2022-07-25T09:14:03.869Z,95897.13
2022-07-25T09:16:35.235Z,95890.53
2022-07-25T09:19:12.639Z,95887.09
2022-07-25T09:21:41.875Z,95895.00
2022-07-25T09:24:11.651Z,95885.81
2022-07-25T09:26:51.396Z,95889.75
2022-07-25T09:29:21.522Z,95882.91
2022-07-25T09:31:49.569Z,95878.44
2022-07-25T09:34:39.365Z,95884.81
2022-07-25T09:37:09.312Z,95879.47
2022-07-25T09:39:45.344Z,95878.16
2022-07-25T09:42:20.988Z,95878.84
2022-07-25T09:45:07.367Z,95876.91
2022-07-25T09:47:36.832Z,95865.94
2022-07-25T09:50:07.788Z,95863.97
2022-07-25T09:52:36.665Z,95865.28
2022-07-25T09:55:06.497Z,95862.81
2022-07-25T09:57:34.307Z,95863.59
2022-07-25T10:00:02.657Z,95855.81
2022-07-25T10:02:48.118Z,95861.88
2022-07-25T10:05:29.968Z,95857.22
2022-07-25T10:07:58.555Z,95858.72
2022-07-25T10:10:29.019Z,95853.41
2022-07-25T10:13:10.584Z,95853.53
2022-07-25T10:15:50.481Z,95844.97
2022-07-25T10:18:19.570Z,95851.50
2022-07-25T10:20:50.809Z,95844.66
2022-07-25T10:23:24.087Z,95843.38
2022-07-25T10:26:08.820Z,95837.22
2022-07-25T10:28:42.564Z,95839.09
2022-07-25T10:31:19.380Z,95841.13
2022-07-25T10:33:50.052Z,95834.44
2022-07-25T10:36:19.397Z,95828.75
2022-07-25T10:38:48.114Z,95830.38
2022-07-25T10:41:17.382Z,95826.88
2022-07-25T10:43:48.790Z,95817.50
2022-07-25T10:46:20.490Z,95821.94
2022-07-25T10:48:58.776Z,95826.28
2022-07-25T10:51:31.058Z,95820.66
2022-07-25T10:53:59.179Z,95815.66
2022-07-25T10:56:29.047Z,95809.25
2022-07-25T10:58:58.111Z,95827.06
2022-07-25T11:01:28.521Z,95821.66
2022-07-25T11:03:57.820Z,95819.59
2022-07-25T11:06:35.698Z,95813.06
2022-07-25T11:09:05.022Z,95815.25
2022-07-25T11:11:37.686Z,95818.56
2022-07-25T11:14:06.750Z,95806.75
2022-07-25T11:16:34.603Z,95808.00
2022-07-25T11:19:02.392Z,95809.63
2022-07-25T11:21:30.201Z,95808.19
2022-07-25T11:23:59.327Z,95789.97
2022-07-25T11:26:27.123Z,95783.81
2022-07-25T11:28:54.896Z,95791.50
2022-07-25T11:31:23.745Z,95795.19
2022-07-25T11:33:51.796Z,95785.63
2022-07-25T11:36:19.827Z,95776.53
2022-07-25T11:38:50.258Z,95782.44
2022-07-25T11:41:29.570Z,95770.59
2022-07-25T11:43:57.651Z,95778.50
2022-07-25T11:46:25.808Z,95771.09
2022-07-25T11:49:05.606Z,95779.06
2022-07-25T11:51:38.690Z,95768.66
2022-07-25T11:54:11.655Z,95766.78
2022-07-25T11:56:43.236Z,95763.09
2022-07-25T11:59:12.291Z,95754.47
2022-07-25T12:01:41.887Z,95756.03
2022-07-25T12:04:14.491Z,95752.34
2022-07-25T12:06:42.831Z,95745.19
2022-07-25T12:09:18.924Z,95754.56
2022-07-25T12:11:50.479Z,95747.06
2022-07-25T12:14:18.517Z,95741.00
2022-07-25T12:16:46.284Z,95745.50
2022-07-25T12:19:22.625Z,95744.88
2022-07-25T12:21:50.387Z,95749.47
2022-07-25T12:24:18.474Z,95739.44
2022-07-25T12:26:46.327Z,95739.34
2022-07-25T12:29:15.545Z,95750.63
2022-07-25T12:31:43.296Z,95739.31
2022-07-25T12:34:11.025Z,95738.88
2022-07-25T12:36:43.875Z,95733.19
2022-07-25T12:39:12.010Z,95729.69
2022-07-25T12:41:42.386Z,95718.94
2022-07-25T12:44:10.124Z,95714.56
2022-07-25T12:46:43.598Z,95723.09
2022-07-25T12:49:16.901Z,95721.81
2022-07-25T12:51:45.307Z,95726.72
2022-07-25T12:54:13.100Z,95720.81
2022-07-25T12:56:42.657Z,95715.41
2022-07-25T12:59:10.601Z,95716.38
2022-07-25T13:01:39.892Z,95716.88
2022-07-25T13:04:09.259Z,95719.72
2022-07-25T13:06:38.864Z,95716.63
2022-07-25T13:09:07.536Z,95702.50
2022-07-25T13:11:35.773Z,95699.97
2022-07-25T13:14:03.622Z,95701.28
2022-07-25T13:16:31.655Z,95698.69
2022-07-25T13:19:00.832Z,95690.25
2022-07-25T13:21:29.488Z,95693.84
2022-07-25T13:23:57.284Z,95691.78
2022-07-25T13:26:25.760Z,95685.63
2022-07-25T13:28:59.379Z,95686.63
2022-07-25T13:31:27.780Z,95684.59
2022-07-25T13:33:55.705Z,95679.94
2022-07-25T13:36:25.024Z,95675.53
2022-07-25T13:38:52.893Z,95675.06
2022-07-25T13:41:20.658Z,95667.59
2022-07-25T13:43:48.780Z,95667.06
2022-07-25T13:46:16.642Z,95658.13
2022-07-25T13:48:44.650Z,95651.44
2022-07-25T13:51:12.475Z,95652.47
2022-07-25T13:53:41.868Z,95649.34
2022-07-25T13:56:09.627Z,95646.75
2022-07-25T13:58:37.520Z,95650.91
2022-07-25T14:01:07.220Z,95648.09
2022-07-25T14:03:36.291Z,95648.56
2022-07-25T14:06:04.833Z,95647.22
2022-07-25T14:08:32.928Z,95640.31
2022-07-25T14:11:02.168Z,95642.16
2022-07-25T14:13:30.339Z,95642.94
2022-07-25T14:15:58.683Z,95635.25
2022-07-25T14:18:26.515Z,95633.16
2022-07-25T14:20:55.176Z,95628.78
2022-07-25T14:23:25.715Z,95627.78
2022-07-25T14:25:58.397Z,95623.59
2022-07-25T14:28:27.629Z,95626.22
2022-07-25T14:30:55.403Z,95619.31
2022-07-25T14:33:23.150Z,95631.88
2022-07-25T14:35:51.200Z,95622.63
2022-07-25T14:38:19.061Z,95627.47
2022-07-25T14:40:47.950Z,95625.59
2022-07-25T14:43:15.852Z,95615.13
2022-07-25T14:45:45.019Z,95611.75
2022-07-25T14:48:12.809Z,95601.97
2022-07-25T14:50:40.648Z,95614.19
2022-07-25T14:53:12.826Z,95610.50
2022-07-25T14:55:40.984Z,95599.22
2022-07-25T14:58:08.820Z,95606.56
2022-07-25T15:00:41.041Z,95608.22
2022-07-25T15:03:10.415Z,95605.91
2022-07-25T15:05:38.683Z,95589.63
2022-07-25T15:08:08.533Z,95585.13
2022-07-25T15:10:36.354Z,95582.66
2022-07-25T15:13:29.510Z,95592.00
2022-07-25T15:15:52.181Z,95591.00
2022-07-25T15:18:21.720Z,95583.09
2022-07-25T15:20:49.489Z,95588.13
2022-07-25T15:23:17.353Z,95573.38
2022-07-25T15:26:01.345Z,95579.72
2022-07-25T15:28:30.127Z,95572.53
2022-07-25T15:30:57.985Z,95578.06
2022-07-25T15:33:27.446Z,95568.03
2022-07-25T15:35:55.467Z,95573.88
2022-07-25T15:38:23.298Z,95567.00
2022-07-25T15:40:51.191Z,95564.22
2022-07-25T15:43:20.951Z,95556.28
2022-07-25T15:45:48.868Z,95562.72
2022-07-25T15:48:17.893Z,95553.50
2022-07-25T15:50:49.593Z,95557.13
2022-07-25T15:53:17.424Z,95553.84
2022-07-25T15:55:45.271Z,95545.44
2022-07-25T15:58:13.127Z,95542.28
2022-07-25T16:00:42.700Z,95542.91
2022-07-25T16:03:11.247Z,95540.25
2022-07-25T16:05:39.844Z,95539.66
2022-07-25T16:08:09.916Z,95532.50
2022-07-25T16:10:38.910Z,95538.06
2022-07-25T16:13:07.464Z,95530.78
2022-07-25T16:15:35.224Z,95539.22
2022-07-25T16:18:03.377Z,95540.38
2022-07-25T16:20:32.220Z,95546.44
2022-07-25T16:23:00.589Z,95537.19
2022-07-25T16:25:31.252Z,95533.81
2022-07-25T16:28:01.739Z,95535.25
2022-07-25T16:30:29.523Z,95540.09
2022-07-25T16:32:57.322Z,95557.22
2022-07-25T16:35:25.713Z,95539.91
2022-07-25T16:37:53.491Z,95553.91
2022-07-25T16:40:22.961Z,95557.22
2022-07-25T16:42:58.337Z,95557.41
2022-07-25T16:45:26.583Z,95555.59
2022-07-25T16:47:54.404Z,95558.50
2022-07-25T16:50:24.169Z,95554.59
2022-07-25T16:52:53.567Z,95554.13
2022-07-25T16:55:21.439Z,95545.59
2022-07-25T16:57:49.232Z,95551.88
2022-07-25T17:00:18.650Z,95551.81
2022-07-25T17:02:46.654Z,95556.91
2022-07-25T17:05:15.013Z,95553.13
2022-07-25T17:07:43.225Z,95550.72
2022-07-25T17:10:11.655Z,95546.25
2022-07-25T17:12:39.417Z,95546.63
2022-07-25T17:15:09.110Z,95549.59
2022-07-25T17:17:38.268Z,95552.38
2022-07-25T17:20:07.052Z,95552.94
2022-07-25T17:22:34.993Z,95551.66
2022-07-25T17:25:02.853Z,95543.03
2022-07-25T17:27:30.985Z,95551.47
2022-07-25T17:29:58.892Z,95562.44
2022-07-25T17:32:30.003Z,95568.69
2022-07-25T17:34:59.692Z,95572.91
2022-07-25T17:37:28.291Z,95579.97
2022-07-25T17:39:56.353Z,95590.59
2022-07-25T17:42:24.149Z,95592.81
2022-07-25T17:44:52.307Z,95605.63
2022-07-25T17:47:20.263Z,95594.56
2022-07-25T17:49:48.045Z,95602.81
2022-07-25T17:52:17.804Z,95604.81
2022-07-25T17:54:45.687Z,95612.75
2022-07-25T17:57:13.497Z,95613.25
2022-07-25T17:59:41.307Z,95600.72
2022-07-25T18:02:09.222Z,95596.94
2022-07-25T18:04:37.144Z,95601.34
2022-07-25T18:07:05.651Z,95593.00
2022-07-25T18:09:34.869Z,95600.28
2022-07-25T18:12:02.974Z,95587.88
2022-07-25T18:14:31.289Z,95591.78
2022-07-25T18:16:59.171Z,95585.38
2022-07-25T18:19:27.261Z,95587.22
2022-07-25T18:21:55.075Z,95585.75
2022-07-25T18:24:28.875Z,95590.91
2022-07-25T18:26:59.353Z,95595.97
2022-07-25T18:29:27.556Z,95593.28
2022-07-25T18:31:58.847Z,95590.19
2022-07-25T18:34:26.634Z,95599.53
2022-07-25T18:36:54.473Z,95601.97
2022-07-25T18:39:22.303Z,95608.31
2022-07-25T18:41:51.997Z,95616.28
2022-07-25T18:44:21.227Z,95614.44
2022-07-25T18:46:49.049Z,95611.50
2022-07-25T18:49:17.025Z,95614.94
2022-07-25T18:51:44.891Z,95622.13
2022-07-25T18:54:12.752Z,95626.47
2022-07-25T18:56:40.520Z,95627.69
2022-07-25T18:59:08.677Z,95620.38
2022-07-25T19:01:38.622Z,95618.03
2022-07-25T19:04:07.211Z,95628.09
2022-07-25T19:06:35.425Z,95644.19
2022-07-25T19:09:03.956Z,95663.09
2022-07-25T19:11:33.258Z,95667.13
2022-07-25T19:14:01.138Z,95674.09
2022-07-25T19:16:29.092Z,95666.56
2022-07-25T19:18:58.377Z,95676.91
2022-07-25T19:21:26.234Z,95674.88
2022-07-25T19:23:53.981Z,95683.53
2022-07-25T19:26:22.372Z,95677.97
2022-07-25T19:28:50.548Z,95684.44
2022-07-25T19:31:18.412Z,95681.47
2022-07-25T19:33:46.757Z,95679.28
2022-07-25T19:36:15.945Z,95680.16
2022-07-25T19:38:43.728Z,95676.16
2022-07-25T19:41:11.924Z,95681.06
2022-07-25T19:43:39.972Z,95680.22
2022-07-25T19:46:07.878Z,95687.25
2022-07-25T19:48:35.878Z,95695.84
2022-07-25T19:51:03.817Z,95703.56
2022-07-25T19:53:33.614Z,95707.13
2022-07-25T19:56:01.500Z,95705.34
2022-07-25T19:58:29.406Z,95711.59
2022-07-25T20:00:57.161Z,95706.00
2022-07-25T20:03:25.095Z,95703.69
2022-07-25T20:05:52.928Z,95713.22
2022-07-25T20:08:20.692Z,95713.66
2022-07-25T20:10:49.831Z,95717.56
2022-07-25T20:13:17.624Z,95724.56
2022-07-25T20:15:45.411Z,95735.03
2022-07-25T20:18:18.921Z,95728.47
2022-07-25T20:20:47.274Z,95701.75
2022-07-25T20:23:15.068Z,95696.28
2022-07-25T20:25:42.855Z,95712.78
2022-07-25T20:28:12.013Z,95729.66
2022-07-25T20:30:40.072Z,95769.72
2022-07-25T20:33:09.152Z,95809.97
2022-07-25T20:35:38.097Z,95823.31
2022-07-25T20:38:10.053Z,95822.19
2022-07-25T20:40:42.885Z,95803.16
2022-07-25T20:43:15.661Z,95796.44
2022-07-25T20:45:43.628Z,95804.03
2022-07-25T20:48:12.044Z,95806.59
2022-07-25T20:50:40.652Z,95801.63
2022-07-25T20:53:09.966Z,95808.97
2022-07-25T20:55:38.223Z,95818.03
2022-07-25T20:58:06.316Z,95822.13
2022-07-25T21:00:35.687Z,95821.66
2022-07-25T21:03:03.518Z,95816.59
2022-07-25T21:05:31.939Z,95831.56
2022-07-25T21:08:00.039Z,95849.72
2022-07-25T21:10:27.877Z,95871.25
2022-07-25T21:12:56.788Z,95877.38
2022-07-25T21:15:24.839Z,95872.53
2022-07-25T21:17:53.968Z,95859.84
2022-07-25T21:20:21.734Z,95880.22
2022-07-25T21:22:49.719Z,95873.69
2022-07-25T21:25:17.579Z,95876.38
2022-07-25T21:27:45.320Z,95876.56
2022-07-25T21:30:13.650Z,95883.28
2022-07-25T21:32:42.030Z,95891.63
2022-07-25T21:35:11.774Z,95890.91
2022-07-25T21:37:39.936Z,95909.22
2022-07-25T21:40:09.588Z,95917.06
2022-07-25T21:42:37.784Z,95929.66
2022-07-25T21:45:06.895Z,95924.16
2022-07-25T21:47:34.704Z,95932.56
2022-07-25T21:50:24.811Z,95925.66
2022-07-25T21:52:55.552Z,95930.03
2022-07-25T21:55:23.487Z,95940.75
2022-07-25T21:57:52.249Z,95943.16
2022-07-25T22:00:21.416Z,95959.44
2022-07-25T22:02:49.844Z,95962.59
2022-07-25T22:05:19.187Z,95963.00
2022-07-25T22:07:47.644Z,95983.56
2022-07-25T22:10:18.499Z,95985.88
2022-07-25T22:12:46.482Z,95985.09
2022-07-25T22:15:16.689Z,95984.03
2022-07-25T22:17:48.686Z,95986.81
2022-07-25T22:20:18.444Z,95988.38
2022-07-25T22:22:46.593Z,95997.13
2022-07-25T22:25:16.180Z,95985.34
2022-07-25T22:27:44.222Z,95994.75
2022-07-25T22:30:18.501Z,95996.88
2022-07-25T22:32:47.529Z,95999.69
2022-07-25T22:35:15.573Z,96016.38
2022-07-25T22:37:43.860Z,96025.03
2022-07-25T22:40:12.743Z,96029.59
2022-07-25T22:42:41.928Z,96036.28
2022-07-25T22:45:10.791Z,96050.91
2022-07-25T22:47:38.755Z,96054.91
2022-07-25T22:50:08.283Z,96062.53
2022-07-25T22:52:36.039Z,96051.50
2022-07-25T22:55:04.152Z,96053.16
2022-07-25T22:57:36.755Z,96058.28
2022-07-25T23:00:09.721Z,96069.38
2022-07-25T23:02:37.597Z,96058.28
2022-07-25T23:05:06.451Z,96070.03
2022-07-25T23:07:34.567Z,96070.03
2022-07-25T23:10:02.705Z,96068.84
2022-07-25T23:12:30.564Z,96073.16
2022-07-25T23:14:58.343Z,96084.63
2022-07-25T23:17:27.513Z,96079.88
2022-07-25T23:19:56.872Z,96083.06
2022-07-25T23:22:27.795Z,96092.91
2022-07-25T23:24:55.979Z,96093.31
2022-07-25T23:27:25.663Z,96083.00
2022-07-25T23:29:53.703Z,96079.53
2022-07-25T23:32:22.597Z,96077.59
2022-07-25T23:34:51.759Z,96084.34
2022-07-25T23:37:19.598Z,96086.28
2022-07-25T23:39:47.425Z,96076.41
2022-07-25T23:42:15.193Z,96071.31
2022-07-25T23:44:44.465Z,96070.19
2022-07-25T23:47:12.367Z,96067.00
2022-07-25T23:49:40.516Z,96073.69
2022-07-25T23:52:09.829Z,96074.09
2022-07-25T23:54:38.638Z,96076.91
2022-07-25T23:57:07.107Z,96063.84
2022-07-25T23:59:35.347Z,96068.22
